Time;durP1;ratioP1;P1;durP2;ratioP2;P2;SDS_P1;SDS_P2;PMS_P1;PMS_P2;Temp;Humidity;BMP_temperature;BMP_pressure;BME280_temperature;BME280_humidity;BME280_pressure;Samples;Min_cycle;Max_cycle;Signal;HPM_P1;HPM_P2
2022/12/31 00:01:32;;;;;;;0.38;0.20;;;;;;;13.81;100.00;100465.28;10455696;28;20037;-90
2022/12/31 00:06:35;;;;;;;0.28;0.22;;;;;;;13.89;100.00;100483.44;10445695;28;20099;-90
2022/12/31 00:11:37;;;;;;;0.60;0.38;;;;;;;13.72;100.00;100543.75;10453354;28;20068;-88
2022/12/31 00:16:41;;;;;;;0.20;0.20;;;;;;;13.62;100.00;100562.66;10442669;28;20053;-89
2022/12/31 00:21:43;;;;;;;0.13;0.13;;;;;;;13.79;100.00;100555.03;10442976;28;20136;-90
2022/12/31 00:27:13;;;;;;;0.15;0.10;;;;;;;13.94;100.00;100570.66;10456824;28;20499;-93
2022/12/31 00:32:14;;;;;;;0.20;0.17;;;;;;;14.11;100.00;100575.94;10457201;28;20476;-92
2022/12/31 00:37:16;;;;;;;0.32;0.32;;;;;;;13.69;100.00;100559.28;10441054;28;20044;-92
2022/12/31 00:42:17;;;;;;;0.00;0.00;;;;;;;13.89;100.00;100551.63;10457144;28;20045;-91
2022/12/31 00:47:19;;;;;;;0.17;0.13;;;;;;;13.49;100.00;100553.94;10443403;28;20488;-91
2022/12/31 00:52:21;;;;;;;0.20;0.20;;;;;;;14.06;100.00;100569.88;10430757;28;20049;-94
2022/12/31 00:57:22;;;;;;;0.40;0.28;;;;;;;14.12;100.00;100553.47;10421246;28;20048;-93
2022/12/31 01:02:24;;;;;;;0.30;0.30;;;;;;;13.78;100.00;100558.47;10458312;28;20133;-94
2022/12/31 01:07:26;;;;;;;0.50;0.40;;;;;;;13.87;100.00;100568.88;10428272;28;20055;-92
2022/12/31 01:12:27;;;;;;;0.25;0.20;;;;;;;13.93;100.00;100574.09;10421962;28;20551;-92
2022/12/31 01:17:29;;;;;;;0.20;0.20;;;;;;;14.04;100.00;100560.34;10419499;28;20143;-92
2022/12/31 01:22:31;;;;;;;0.00;0.00;;;;;;;13.96;100.00;100563.75;10446396;28;20083;-92
2022/12/31 01:27:32;;;;;;;0.08;0.08;;;;;;;13.99;100.00;100562.03;10442959;28;20083;-92
2022/12/31 01:32:34;;;;;;;0.52;0.15;;;;;;;13.82;100.00;100529.13;10431997;28;20046;-92
2022/12/31 01:37:38;;;;;;;0.20;0.20;;;;;;;14.12;100.00;100587.16;10442019;28;20131;-94
2022/12/31 01:42:39;;;;;;;0.00;0.00;;;;;;;14.14;100.00;100592.38;10457404;28;20235;-93
2022/12/31 01:47:47;;;;;;;0.10;0.00;;;;;;;13.98;100.00;100565.47;10432095;28;20052;-90
2022/12/31 01:52:55;;;;;;;0.17;0.17;;;;;;;13.82;100.00;100539.47;10431574;28;20041;-92
2022/12/31 01:58:03;;;;;;;0.22;0.00;;;;;;;13.85;100.00;100544.69;10456378;28;20447;-93
2022/12/31 02:03:06;;;;;;;0.00;0.00;;;;;;;13.74;100.00;100567.03;10418160;28;20041;-91
2022/12/31 02:08:09;;;;;;;1.08;0.13;;;;;;;13.69;100.00;100540.25;10425533;28;20132;-90
2022/12/31 02:13:12;;;;;;;0.43;0.15;;;;;;;13.88;100.00;100546.44;10451277;28;20057;-93
2022/12/31 02:18:33;;;;;;;0.08;0.00;;;;;;;13.72;100.00;100554.09;10421053;28;20118;-92
2022/12/31 02:24:01;;;;;;;;;;;;;;;13.64;100.00;100538.53;10440096;28;20071;-91
2022/12/31 02:29:18;;;;;;;0.08;0.08;;;;;;;13.80;100.00;100556.75;10463610;28;20299;-92
2022/12/31 02:34:32;;;;;;;0.00;0.00;;;;;;;13.74;100.00;100551.50;10463574;28;20095;-92
2022/12/31 02:39:35;;;;;;;0.00;0.00;;;;;;;13.60;100.00;100580.75;10463401;28;20141;-93
2022/12/31 02:44:39;;;;;;;0.00;0.00;;;;;;;13.27;100.00;100631.31;10463474;28;20049;-93
2022/12/31 02:50:06;;;;;;;0.00;0.00;;;;;;;13.37;100.00;100592.59;10446913;28;20514;-93
2022/12/31 02:55:33;;;;;;;0.32;0.20;;;;;;;13.26;100.00;100548.50;10446442;28;20068;-93
2022/12/31 03:06:03;;;;;;;0.65;0.28;;;;;;;13.41;100.00;100532.28;10469474;28;20106;-91
2022/12/31 03:12:44;;;;;;;0.00;0.00;;;;;;;13.32;100.00;100531.31;10461140;28;20045;-93
2022/12/31 03:16:26;;;;;;;1.10;0.80;;;;;;;13.14;100.00;100554.47;10436278;28;20076;-91
2022/12/31 03:27:02;;;;;;;0.03;0.03;;;;;;;13.08;100.00;100556.94;10432965;28;20050;-92
2022/12/31 03:32:03;;;;;;;0.20;0.10;;;;;;;13.15;100.00;100566.50;10431831;28;20045;-91
2022/12/31 03:37:05;;;;;;;0.00;0.00;;;;;;;13.01;100.00;100585.34;10426384;28;20101;-92
2022/12/31 03:42:06;;;;;;;0.00;0.00;;;;;;;13.04;100.00;100578.47;10458638;28;20041;-92
2022/12/31 03:47:08;;;;;;;0.00;0.00;;;;;;;12.88;100.00;100578.31;10459501;28;20099;-92
2022/12/31 03:52:10;;;;;;;0.00;0.00;;;;;;;12.84;100.00;100589.47;10459970;28;20400;-90
2022/12/31 03:57:11;;;;;;;0.15;0.10;;;;;;;12.89;100.00;100597.25;10460834;28;20053;-92
2022/12/31 04:02:13;;;;;;;0.00;0.00;;;;;;;12.87;100.00;100601.56;10460250;28;20045;-94
2022/12/31 04:07:15;;;;;;;0.00;0.00;;;;;;;13.14;100.00;100595.84;10460090;28;20055;-94
2022/12/31 04:12:16;;;;;;;0.43;0.43;;;;;;;13.04;100.00;100578.47;10459883;28;20045;-93
2022/12/31 04:17:18;;;;;;;0.20;0.00;;;;;;;12.85;100.00;100573.97;10459696;28;20045;-94
2022/12/31 04:22:20;;;;;;;0.00;0.00;;;;;;;13.24;100.00;100570.94;10461261;28;20049;-94
2022/12/31 04:27:22;;;;;;;0.05;0.05;;;;;;;13.30;100.00;100569.25;10443437;28;20057;-94
2022/12/31 04:32:23;;;;;;;0.75;0.47;;;;;;;13.25;100.00;100565.75;10459526;28;20098;-95
2022/12/31 04:37:26;;;;;;;0.25;0.22;;;;;;;13.10;100.00;100573.38;10459638;28;20052;-94
2022/12/31 04:42:28;;;;;;;0.17;0.17;;;;;;;13.12;100.00;100566.50;10459030;28;20404;-94
2022/12/31 04:47:29;;;;;;;0.10;0.10;;;;;;;13.14;100.00;100585.50;10442177;28;20403;-95
2022/12/31 04:52:31;;;;;;;0.00;0.00;;;;;;;12.96;100.00;100592.19;10458404;28;20045;-92
2022/12/31 04:57:40;;;;;;;0.20;0.20;;;;;;;12.74;100.00;100574.69;10443386;28;20399;-93
2022/12/31 05:02:42;;;;;;;0.85;0.52;;;;;;;12.87;100.00;100586.91;10441819;28;20052;-93
2022/12/31 05:07:44;;;;;;;0.20;0.10;;;;;;;12.92;100.00;100590.41;10458216;28;20057;-93
2022/12/31 05:12:46;;;;;;;0.00;0.00;;;;;;;12.74;100.00;100574.69;10457022;28;20049;-93
2022/12/31 05:17:48;;;;;;;0.08;0.03;;;;;;;13.05;100.00;100569.88;10440892;28;20045;-94
2022/12/31 05:22:50;;;;;;;0.10;0.10;;;;;;;13.21;100.00;100564.00;10457559;28;20045;-93
2022/12/31 05:27:52;;;;;;;0.00;0.00;;;;;;;12.94;100.00;100572.34;10456934;28;20519;-92
2022/12/31 05:32:53;;;;;;;0.00;0.00;;;;;;;13.37;100.00;100584.81;10439753;28;20128;-93
2022/12/31 05:38:22;;;;;;;0.60;0.10;;;;;;;13.45;100.00;100585.78;10457253;28;20045;-92
2022/12/31 05:43:24;;;;;;;0.00;0.00;;;;;;;13.52;100.00;100587.59;10452595;28;20057;-94
2022/12/31 05:48:25;;;;;;;0.00;0.00;;;;;;;13.66;100.00;100600.66;10432307;28;20059;-91
2022/12/31 05:53:27;;;;;;;0.00;0.00;;;;;;;13.71;100.00;100598.97;10444775;28;20045;-90
2022/12/31 05:58:29;;;;;;;0.00;0.00;;;;;;;13.85;100.00;100606.84;10460797;28;20056;-89
2022/12/31 06:03:30;;;;;;;0.00;0.00;;;;;;;13.70;100.00;100601.53;10444612;28;20184;-90
2022/12/31 06:08:32;;;;;;;1.02;0.85;;;;;;;13.74;100.00;100592.94;10460159;28;20053;-89
2022/12/31 06:13:34;;;;;;;0.00;0.00;;;;;;;13.68;100.00;100598.94;10460239;28;20036;-89
2022/12/31 06:18:36;;;;;;;0.00;0.00;;;;;;;13.73;100.00;100606.75;10459945;28;20056;-91
2022/12/31 06:23:39;;;;;;;0.00;0.00;;;;;;;13.71;100.00;100616.22;10443349;28;20076;-90
2022/12/31 06:28:41;;;;;;;0.00;0.00;;;;;;;13.76;100.00;100610.25;10443380;28;20068;-91
2022/12/31 06:33:43;;;;;;;0.00;0.00;;;;;;;13.35;100.00;100620.19;10459045;28;20040;-90
2022/12/31 06:38:44;;;;;;;0.00;0.00;;;;;;;13.43;100.00;100613.41;10442917;28;20118;-90
2022/12/31 06:43:47;;;;;;;0.00;0.00;;;;;;;13.56;100.00;100619.53;10459346;28;20060;-90
2022/12/31 06:48:48;;;;;;;0.00;0.00;;;;;;;13.75;100.00;100625.75;10458978;28;20063;-89
2022/12/31 06:53:50;;;;;;;0.00;0.00;;;;;;;13.86;100.00;100629.31;10459089;28;20041;-89
2022/12/31 06:58:52;;;;;;;0.00;0.00;;;;;;;13.79;100.00;100658.59;10445350;28;20049;-90
2022/12/31 07:04:39;;;;;;;0.00;0.00;;;;;;;13.75;100.00;100651.63;10458308;28;20131;-90
2022/12/31 07:10:00;;;;;;;0.00;0.00;;;;;;;13.70;100.00;100668.84;10437181;28;20099;-89
2022/12/31 07:15:15;;;;;;;0.00;0.00;;;;;;;14.08;100.00;100673.50;10457659;28;20045;-88
2022/12/31 07:20:20;;;;;;;0.00;0.00;;;;;;;14.41;100.00;100653.84;10459387;28;20107;-90
2022/12/31 07:25:22;;;;;;;0.00;0.00;;;;;;;14.36;100.00;100624.44;10458302;28;20045;-89
2022/12/31 07:30:29;;;;;;;0.00;0.00;;;;;;;14.45;100.00;100616.72;10457142;28;20056;-89
2022/12/31 07:35:56;;;;;;;0.40;0.10;;;;;;;14.59;100.00;100607.28;10457450;28;20049;-90
2022/12/31 07:41:33;;;;;;;0.00;0.00;;;;;;;14.57;100.00;100609.00;10455902;28;20400;-90
2022/12/31 07:46:44;;;;;;;0.15;0.15;;;;;;;14.54;100.00;100600.34;10433170;28;20049;-90
2022/12/31 07:51:46;;;;;;;0.00;0.00;;;;;;;14.58;100.00;100597.78;10455094;28;20049;-90
2022/12/31 07:56:49;;;;;;;0.00;0.00;;;;;;;14.64;100.00;100609.03;10456044;28;20102;-90
2022/12/31 08:02:05;;;;;;;0.10;0.10;;;;;;;14.70;100.00;100619.47;10456069;28;20057;-90
2022/12/31 08:07:42;;;;;;;0.00;0.00;;;;;;;14.72;100.00;100623.81;10443312;28;20106;-90
2022/12/31 08:12:48;;;;;;;0.00;0.00;;;;;;;14.90;100.00;100635.97;10452708;28;20041;-88
2022/12/31 08:17:50;;;;;;;0.00;0.00;;;;;;;15.18;100.00;100635.22;10455969;28;20144;-89
2022/12/31 08:23:20;;;;;;;0.22;0.10;;;;;;;15.14;100.00;100636.94;10438410;28;20045;-89
2022/12/31 08:28:45;;;;;;;0.00;0.00;;;;;;;15.07;100.00;100622.22;10443833;28;20053;-89
2022/12/31 08:33:56;;;;;;;0.00;0.00;;;;;;;15.19;100.00;100624.81;10455004;28;20045;-88
2022/12/31 08:39:29;;;;;;;0.00;0.00;;;;;;;15.54;100.00;100647.38;10443351;28;20111;-89
2022/12/31 08:44:42;;;;;;;0.00;0.00;;;;;;;15.48;100.00;100747.78;10425694;28;20051;-88
2022/12/31 08:57:06;;;;;;;0.00;0.00;;;;;;;14.47;100.00;100809.44;10464825;28;20037;-91
2022/12/31 09:02:29;;;;;;;0.00;0.00;;;;;;;14.80;100.00;100766.47;10457879;28;20045;-90
2022/12/31 09:07:43;;;;;;;0.00;0.00;;;;;;;14.98;100.00;100734.56;10457839;28;20484;-92
2022/12/31 09:13:15;;;;;;;0.10;0.10;;;;;;;14.97;100.00;100706.03;10457606;28;20129;-92
2022/12/31 09:18:17;;;;;;;0.00;0.00;;;;;;;15.13;100.00;100700.06;10453519;28;20062;-91
2022/12/31 09:23:19;;;;;;;0.22;0.08;;;;;;;15.07;100.00;100729.44;10399791;28;20397;-90
2022/12/31 09:28:49;;;;;;;0.00;0.00;;;;;;;15.41;100.00;100713.13;10415920;28;20049;-90
2022/12/31 09:34:33;;;;;;;0.00;0.00;;;;;;;15.54;100.00;100703.63;10415722;28;20049;-91
2022/12/31 09:39:46;;;;;;;0.00;0.00;;;;;;;15.74;100.00;100651.75;10456641;28;20408;-91
2022/12/31 09:45:09;;;;;;;0.10;0.10;;;;;;;15.73;100.00;100639.63;10440146;28;20043;-90
2022/12/31 09:50:41;;;;;;;0.10;0.10;;;;;;;15.51;100.00;100642.19;10442685;28;20076;-90
2022/12/31 09:56:11;;;;;;;0.00;0.00;;;;;;;16.10;100.00;100646.53;10415005;28;20049;-90
2022/12/31 10:01:34;;;;;;;0.00;0.00;;;;;;;16.14;100.00;100638.75;10414751;28;20107;-89
2022/12/31 10:07:12;;;;;;;0.90;0.38;;;;;;;16.25;100.00;100617.94;10414411;28;20049;-89
2022/12/31 10:13:08;;;;;;;0.05;0.00;;;;;;;16.65;100.00;100609.13;10425572;28;20057;-88
2022/12/31 10:18:22;;;;;;;2.80;0.20;;;;;;;16.76;100.00;100607.38;10449025;28;20480;-88
2022/12/31 10:23:30;;;;;;;0.00;0.00;;;;;;;16.43;100.00;100639.56;10449002;28;20080;-92
2022/12/31 10:28:41;;;;;;;0.30;0.10;;;;;;;16.58;100.00;100659.44;10456497;28;20045;-91
2022/12/31 10:33:54;;;;;;;0.00;0.00;;;;;;;16.31;100.00;100674.25;10446260;28;20063;-88
2022/12/31 10:39:19;;;;;;;0.00;0.00;;;;;;;16.61;100.00;100649.06;10462832;28;20040;-89
2022/12/31 10:45:10;;;;;;;0.00;0.00;;;;;;;16.75;100.00;100647.25;10461198;28;20381;-88
2022/12/31 10:50:43;;;;;;;0.50;0.50;;;;;;;16.78;100.00;100620.38;10455704;28;20045;-88
2022/12/31 10:56:07;;;;;;;0.00;0.00;;;;;;;16.61;100.00;100636.91;10471215;28;20041;-88
2022/12/31 11:01:31;;;;;;;0.05;0.05;;;;;;;16.46;100.00;100648.22;10445580;28;20052;-88
2022/12/31 11:13:51;;;;;;;0.17;0.17;;;;;;;16.85;100.00;100622.06;10446696;28;20065;-85
2022/12/31 11:18:58;;;;;;;0.10;0.00;;;;;;;16.84;100.00;100624.69;10431229;28;20045;-86
2022/12/31 11:24:17;;;;;;;0.00;0.00;;;;;;;16.91;100.00;100610.78;10450972;28;20040;-86
2022/12/31 11:29:28;;;;;;;0.00;0.00;;;;;;;17.07;100.00;100550.00;10447581;28;20095;-86
2022/12/31 11:34:40;;;;;;;0.00;0.00;;;;;;;17.04;100.00;100543.94;10457069;28;20507;-85
2022/12/31 11:40:17;;;;;;;0.00;0.00;;;;;;;17.16;100.00;100543.00;10457597;28;20072;-86
2022/12/31 11:45:56;;;;;;;0.22;0.08;;;;;;;17.23;100.00;100545.53;10457903;28;20111;-85
2022/12/31 11:51:35;;;;;;;0.00;0.00;;;;;;;17.40;100.00;100541.94;10454453;28;20056;-86
2022/12/31 11:56:46;;;;;;;0.00;0.00;;;;;;;17.20;100.00;100534.28;10436532;28;20392;-86
2022/12/31 12:02:00;;;;;;;0.05;0.00;;;;;;;17.64;100.00;100547.81;10433715;28;20053;-87
2022/12/31 12:07:16;;;;;;;0.00;0.00;;;;;;;17.81;100.00;100519.00;10449592;28;20044;-86
2022/12/31 12:12:18;;;;;;;0.10;0.05;;;;;;;17.74;100.00;100529.50;10436781;28;20095;-87
2022/12/31 12:17:32;;;;;;;0.10;0.10;;;;;;;17.80;100.00;100533.75;10446751;28;20140;-86
2022/12/31 12:22:34;;;;;;;0.15;0.00;;;;;;;17.81;100.00;100532.88;10451475;28;20098;-86
2022/12/31 12:27:37;;;;;;;0.10;0.00;;;;;;;17.67;100.00;100553.88;10443764;28;20041;-86
2022/12/31 12:32:50;;;;;;;0.00;0.00;;;;;;;17.68;100.00;100544.31;10448363;28;20049;-86
2022/12/31 12:38:12;;;;;;;0.00;0.00;;;;;;;17.43;100.00;100548.00;10452103;28;20052;-87
2022/12/31 12:43:23;;;;;;;0.00;0.00;;;;;;;17.27;100.00;100562.88;10437986;28;20051;-87
2022/12/31 12:48:38;;;;;;;0.03;0.03;;;;;;;17.15;100.00;100557.75;10445227;28;20458;-86
2022/12/31 12:54:12;;;;;;;0.47;0.25;;;;;;;17.00;100.00;100573.44;10446602;28;20041;-86
2022/12/31 12:59:38;;;;;;;;;;;;;;;16.85;100.00;100563.97;10429020;28;20099;-86
2022/12/31 13:04:57;;;;;;;0.00;0.00;;;;;;;16.94;100.00;100559.63;10437023;28;19924;-87
2022/12/31 13:10:08;;;;;;;0.00;0.00;;;;;;;16.84;100.00;100563.09;10447247;28;20052;-87
2022/12/31 13:15:22;;;;;;;0.00;0.00;;;;;;;17.09;100.00;100561.25;10429026;28;20041;-86
2022/12/31 13:20:45;;;;;;;0.00;0.00;;;;;;;16.81;100.00;100561.38;10426569;28;20059;-87
2022/12/31 13:26:12;;;;;;;0.00;0.00;;;;;;;16.65;100.00;100558.00;10447300;28;20041;-86
2022/12/31 13:31:20;;;;;;;0.00;0.00;;;;;;;17.02;100.00;100556.09;10433775;28;20053;-85
2022/12/31 13:36:26;;;;;;;0.32;0.28;;;;;;;16.98;100.00;100562.22;10452956;28;20079;-91
2022/12/31 13:41:54;;;;;;;1.10;0.40;;;;;;;17.09;100.00;100553.44;10448080;28;20049;-89
2022/12/31 13:47:09;;;;;;;0.25;0.20;;;;;;;17.34;100.00;100568.03;10417252;28;20168;-89
2022/12/31 13:52:31;;;;;;;0.00;0.00;;;;;;;17.17;100.00;100560.31;10449535;28;20045;-89
2022/12/31 13:57:42;;;;;;;0.00;0.00;;;;;;;17.03;100.00;100569.09;10440808;28;20041;-90
2022/12/31 14:02:58;;;;;;;0.30;0.30;;;;;;;17.07;100.00;100567.34;10440867;28;20499;-90
2022/12/31 14:08:04;;;;;;;0.00;0.00;;;;;;;16.89;100.00;100589.09;10445763;28;20076;-90
2022/12/31 14:13:32;;;;;;;0.10;0.10;;;;;;;16.70;100.00;100597.00;10453763;28;20087;-90
2022/12/31 14:18:52;;;;;;;0.00;0.00;;;;;;;16.73;100.00;100570.97;10478572;28;20127;-89
2022/12/31 14:24:16;;;;;;;0.00;0.00;;;;;;;16.92;100.00;100557.88;10476368;28;20052;-89
2022/12/31 14:29:32;;;;;;;0.30;0.20;;;;;;;17.06;100.00;100579.50;10484394;28;20075;-90
2022/12/31 14:34:58;;;;;;;0.10;0.10;;;;;;;17.18;100.00;100572.47;10484804;28;20098;-90
2022/12/31 14:40:22;;;;;;;0.05;0.05;;;;;;;17.40;100.00;100574.03;10460700;28;20044;-90
2022/12/31 14:45:44;;;;;;;0.10;0.10;;;;;;;17.49;100.00;100567.03;10485589;28;20048;-90
2022/12/31 14:50:46;;;;;;;0.38;0.10;;;;;;;17.39;100.00;100572.31;10487565;28;20063;-86
2022/12/31 14:56:01;;;;;;;0.00;0.00;;;;;;;17.59;100.00;100579.13;10481231;28;20394;-85
2022/12/31 15:01:07;;;;;;;2.97;0.30;;;;;;;17.69;100.00;100585.97;10503147;28;20044;-86
2022/12/31 15:06:21;;;;;;;0.63;0.35;;;;;;;17.56;100.00;100590.44;10489605;28;20087;-86
2022/12/31 15:11:28;;;;;;;1.65;0.47;;;;;;;17.74;100.00;100594.63;10466944;28;20174;-85
2022/12/31 15:16:51;;;;;;;0.00;0.00;;;;;;;17.70;100.00;100595.50;10469217;28;20044;-85
2022/12/31 15:22:14;;;;;;;11.82;1.00;;;;;;;17.62;100.00;100604.28;10472366;28;20050;-84
2022/12/31 15:27:29;;;;;;;5.82;0.38;;;;;;;17.77;100.00;100604.16;10471413;28;20379;-85
2022/12/31 15:32:39;;;;;;;0.00;0.00;;;;;;;17.57;100.00;100604.31;10461147;28;20104;-84
2022/12/31 15:37:41;;;;;;;0.77;0.30;;;;;;;17.68;100.00;100615.53;10461640;28;20041;-83
2022/12/31 15:42:54;;;;;;;0.22;0.13;;;;;;;17.49;100.00;100608.72;10465854;28;20576;-83
2022/12/31 15:47:59;;;;;;;3.67;0.98;;;;;;;17.56;100.00;100613.00;10485547;28;20068;-83
2022/12/31 15:53:02;;;;;;;3.40;1.48;;;;;;;17.47;100.00;100618.25;10460339;28;20048;-84
2022/12/31 15:58:09;;;;;;;0.00;0.00;;;;;;;17.23;100.00;100633.19;10473961;28;20072;-83
2022/12/31 16:03:25;;;;;;;0.45;0.20;;;;;;;17.16;100.00;100618.50;10485409;28;20047;-83
2022/12/31 16:08:32;;;;;;;0.45;0.20;;;;;;;17.12;100.00;100613.28;10456681;28;20568;-84
2022/12/31 16:13:38;;;;;;;0.47;0.35;;;;;;;17.12;100.00;100626.31;10481270;28;20036;-83
2022/12/31 16:18:42;;;;;;;1.95;0.47;;;;;;;16.89;100.00;100608.19;10464347;28;20053;-84
2022/12/31 16:23:49;;;;;;;1.45;0.63;;;;;;;17.23;100.00;100612.38;10464021;28;20118;-84
2022/12/31 16:28:51;;;;;;;0.20;0.10;;;;;;;17.20;100.00;100617.59;10480622;28;20136;-84
2022/12/31 16:34:03;;;;;;;0.70;0.52;;;;;;;17.19;100.00;100627.16;10479645;28;20307;-83
2022/12/31 16:39:24;;;;;;;0.20;0.20;;;;;;;17.27;100.00;100611.47;10452352;28;20055;-83
2022/12/31 16:44:28;;;;;;;1.45;0.22;;;;;;;17.07;100.00;100606.38;10471645;28;20048;-84
2022/12/31 16:49:31;;;;;;;0.00;0.00;;;;;;;17.16;100.00;100585.50;10495084;28;20098;-83
2022/12/31 16:54:37;;;;;;;0.10;0.10;;;;;;;16.95;100.00;100594.28;10494621;28;20037;-84
2022/12/31 16:59:44;;;;;;;0.30;0.30;;;;;;;16.89;100.00;100604.69;10459944;28;20040;-83
2022/12/31 17:04:47;;;;;;;0.10;0.10;;;;;;;17.10;100.00;100585.53;10492818;28;20051;-83
2022/12/31 17:10:05;;;;;;;1.50;0.77;;;;;;;16.87;100.00;100577.81;10494650;28;20048;-84
2022/12/31 17:15:37;;;;;;;0.00;0.00;;;;;;;16.95;100.00;100586.47;10444794;28;20067;-84
2022/12/31 17:20:39;;;;;;;0.00;0.00;;;;;;;16.79;100.00;100576.13;10470114;28;20521;-84
2022/12/31 17:25:41;;;;;;;0.38;0.20;;;;;;;16.76;100.00;100576.16;10475206;28;20454;-83
2022/12/31 17:30:42;;;;;;;6.88;0.43;;;;;;;16.80;100.00;100580.47;10455727;28;20055;-82
2022/12/31 17:35:53;;;;;;;3.53;0.75;;;;;;;16.95;100.00;100582.16;10449913;28;20454;-83
2022/12/31 17:41:04;;;;;;;0.00;0.00;;;;;;;16.88;100.00;100582.16;10438869;28;20056;-83
2022/12/31 17:46:24;;;;;;;0.57;0.30;;;;;;;16.97;100.00;100589.94;10454607;28;20094;-83
2022/12/31 17:51:26;;;;;;;;;;;;;;;16.46;100.00;100575.41;10460958;28;20059;-85
2022/12/31 17:56:27;;;;;;;0.47;0.15;;;;;;;16.30;100.00;100551.22;10441502;28;20324;-84
2022/12/31 18:01:29;;;;;;;4.88;0.95;;;;;;;16.48;100.00;100557.19;10481562;28;20557;-84
2022/12/31 18:06:33;;;;;;;0.55;0.38;;;;;;;16.42;100.00;100560.69;10486578;28;20044;-84
2022/12/31 18:11:36;;;;;;;0.85;0.35;;;;;;;16.26;100.00;100578.06;10466333;28;20068;-84
2022/12/31 18:16:38;;;;;;;0.10;0.00;;;;;;;16.41;100.00;100579.78;10472202;28;20043;-83
2022/12/31 18:21:42;;;;;;;0.08;0.03;;;;;;;16.25;100.00;100565.94;10478659;28;20052;-83
2022/12/31 18:26:44;;;;;;;0.10;0.10;;;;;;;16.32;100.00;100574.59;10460534;28;20072;-83
2022/12/31 18:31:47;;;;;;;1.05;0.73;;;;;;;16.55;100.00;100556.31;10476998;28;20499;-83
2022/12/31 18:36:49;;;;;;;0.10;0.10;;;;;;;16.45;100.00;100563.28;10479091;28;20097;-84
2022/12/31 18:41:51;;;;;;;1.60;0.45;;;;;;;16.44;100.00;100584.94;10467558;28;20045;-84
2022/12/31 18:46:52;;;;;;;0.20;0.08;;;;;;;16.69;100.00;100574.47;10476807;28;20049;-84
2022/12/31 18:51:55;;;;;;;0.10;0.10;;;;;;;16.74;100.00;100561.44;10458862;28;20515;-85
2022/12/31 18:56:57;;;;;;;0.17;0.17;;;;;;;16.68;100.00;100567.53;10482770;28;20044;-83
2022/12/31 19:01:59;;;;;;;0.00;0.00;;;;;;;16.64;100.00;100576.22;10477945;28;20044;-84
2022/12/31 19:07:01;;;;;;;0.98;0.45;;;;;;;16.65;100.00;100572.72;10483197;28;20098;-83
2022/12/31 19:12:03;;;;;;;0.10;0.10;;;;;;;16.29;100.00;100582.41;10487039;28;20056;-83
2022/12/31 19:17:09;;;;;;;0.60;0.30;;;;;;;16.39;100.00;100597.13;10459162;28;20065;-82
2022/12/31 19:22:13;;;;;;;0.98;0.47;;;;;;;16.29;100.00;100591.09;10485305;28;20039;-82
2022/12/31 19:27:15;;;;;;;0.50;0.28;;;;;;;16.11;100.00;100581.59;10475645;28;20433;-83
2022/12/31 19:32:17;;;;;;;1.10;0.80;;;;;;;16.35;100.00;100590.16;10459592;28;20053;-82
2022/12/31 19:37:18;;;;;;;0.52;0.45;;;;;;;16.38;100.00;100610.97;10482105;28;20040;-82
2022/12/31 19:42:20;;;;;;;0.25;0.15;;;;;;;16.46;100.00;100598.81;10464765;28;20075;-83
2022/12/31 19:47:22;;;;;;;0.52;0.22;;;;;;;16.61;100.00;100608.28;10493713;28;20044;-83
2022/12/31 19:52:23;;;;;;;0.65;0.45;;;;;;;16.64;100.00;100610.03;10468241;28;20496;-83
2022/12/31 19:57:25;;;;;;;0.52;0.40;;;;;;;16.46;100.00;100604.03;10464265;28;20051;-83
2022/12/31 20:02:29;;;;;;;0.10;0.00;;;;;;;16.40;100.00;100598.84;10479602;28;20102;-84
2022/12/31 20:07:33;;;;;;;0.00;0.00;;;;;;;16.37;100.00;100619.63;10455583;28;20522;-84
2022/12/31 20:12:34;;;;;;;0.22;0.10;;;;;;;16.58;100.00;100623.91;10472809;28;20771;-83
2022/12/31 20:17:44;;;;;;;0.47;0.30;;;;;;;16.41;100.00;100626.59;10481392;28;20045;-83
2022/12/31 20:22:46;;;;;;;0.45;0.15;;;;;;;16.43;100.00;100635.22;10480101;28;20102;-82
2022/12/31 20:27:51;;;;;;;1.38;0.40;;;;;;;16.42;100.00;100628.28;10476365;28;20082;-82
2022/12/31 20:32:53;;;;;;;0.43;0.30;;;;;;;16.57;100.00;100626.53;10474781;28;20094;-82
2022/12/31 20:37:55;;;;;;;0.20;0.17;;;;;;;16.63;100.00;100632.56;10465336;28;20052;-81
2022/12/31 20:42:56;;;;;;;0.03;0.03;;;;;;;16.46;100.00;100634.34;10475227;28;20048;-81
2022/12/31 20:47:58;;;;;;;3.15;0.68;;;;;;;16.56;100.00;100646.47;10456706;28;20074;-81
2022/12/31 20:53:00;;;;;;;1.88;0.52;;;;;;;16.54;100.00;100647.34;10458361;28;20056;-82
2022/12/31 20:58:03;;;;;;;0.30;0.30;;;;;;;16.67;100.00;100654.22;10462495;28;20037;-82
2022/12/31 21:03:05;;;;;;;0.40;0.30;;;;;;;16.53;100.00;100645.59;10443734;28;20052;-82
2022/12/31 21:08:28;;;;;;;0.00;0.00;;;;;;;16.64;100.00;100649.06;10467790;28;20144;-82
2022/12/31 21:13:35;;;;;;;34.80;1.08;;;;;;;16.67;100.00;100648.16;10470106;28;20072;-82
2022/12/31 21:18:37;;;;;;;0.10;0.08;;;;;;;16.57;100.00;100652.53;10460553;28;20068;-82
2022/12/31 21:23:39;;;;;;;0.32;0.22;;;;;;;16.41;100.00;100647.38;10478127;28;20564;-83
2022/12/31 21:28:41;;;;;;;0.08;0.08;;;;;;;16.45;100.00;100653.44;10477901;28;20102;-82
2022/12/31 21:33:44;;;;;;;0.00;0.00;;;;;;;16.38;100.00;100657.78;10477416;28;20131;-82
2022/12/31 21:38:45;;;;;;;0.82;0.82;;;;;;;16.37;100.00;100668.19;10461165;28;20033;-81
2022/12/31 21:43:47;;;;;;;0.75;0.43;;;;;;;16.44;100.00;100673.34;10477241;28;20086;-82
2022/12/31 21:48:53;;;;;;;0.45;0.45;;;;;;;16.31;100.00;100674.25;10425771;28;20069;-83
2022/12/31 21:53:55;;;;;;;0.20;0.15;;;;;;;16.34;100.00;100684.66;10492648;28;20044;-83
2022/12/31 22:04:17;;;;;;;0.50;0.40;;;;;;;16.47;100.00;100688.06;10450572;28;20055;-83
2022/12/31 22:09:39;;;;;;;3.40;0.52;;;;;;;16.48;100.00;100695.91;10460823;28;20051;-82
2022/12/31 22:14:40;;;;;;;0.35;0.35;;;;;;;16.38;100.00;100699.38;10481342;28;20052;-82
2022/12/31 22:20:02;;;;;;;0.15;0.03;;;;;;;16.41;100.00;100688.97;10463200;28;20036;-82
2022/12/31 22:25:24;;;;;;;0.10;0.10;;;;;;;16.44;100.00;100704.56;10476959;28;20049;-82
2022/12/31 22:30:25;;;;;;;0.05;0.05;;;;;;;16.50;100.00;100721.88;10478843;28;20106;-81
2022/12/31 22:35:27;;;;;;;0.55;0.32;;;;;;;16.65;100.00;100723.59;10496748;28;20052;-82
2022/12/31 22:40:29;;;;;;;0.95;0.68;;;;;;;16.59;100.00;100728.81;10483523;28;20052;-81
2022/12/31 22:45:30;;;;;;;3.10;1.48;;;;;;;16.44;100.00;100724.50;10500911;28;20097;-81
2022/12/31 22:50:32;;;;;;;0.50;0.43;;;;;;;16.40;100.00;100720.16;10466682;28;20048;-81
2022/12/31 22:55:33;;;;;;;2.75;1.85;;;;;;;16.27;100.00;100732.31;10482978;28;20098;-81
2022/12/31 23:00:40;;;;;;;2.05;0.47;;;;;;;16.22;100.00;100734.91;10472902;28;20407;-83
2022/12/31 23:05:42;;;;;;;0.20;0.00;;;;;;;16.10;100.00;100729.69;10473314;28;20040;-83
2022/12/31 23:10:58;;;;;;;1.20;0.52;;;;;;;16.25;100.00;100744.44;10477587;28;20093;-82
2022/12/31 23:26:49;;;;;;;1.00;0.90;;;;;;;16.32;100.00;100751.38;10470161;28;20061;-81
2022/12/31 23:31:51;;;;;;;3.40;2.70;;;;;;;16.41;100.00;100740.97;10479478;28;20560;-81
2022/12/31 23:36:54;;;;;;;3.85;1.10;;;;;;;16.37;100.00;100754.84;10474824;28;20078;-82
2022/12/31 23:42:00;;;;;;;1.35;0.63;;;;;;;16.39;100.00;100758.31;10471752;28;20040;-82
2022/12/31 23:47:01;;;;;;;2.75;1.48;;;;;;;16.09;100.00;100765.22;10457886;28;20040;-82
2022/12/31 23:52:03;;;;;;;1.95;0.35;;;;;;;16.28;100.00;100763.50;10499921;28;20048;-82
2022/12/31 23:57:05;;;;;;;2.47;1.05;;;;;;;16.55;100.00;100760.91;10479823;28;20045;-82
